Buckhorn, New Mexico
Current Conditions -  °F | °C
As of 1:15 PM on Wednesday 26 Nov 2014 (Local Time) from KSVC Reporting Station
Clear Clear  
Wind Chill: 61°   Ceiling: Unl
Heat Index: 61°   Visibility: 10mi
Dew Point: 18°   Wind: 10mph
Humidity: 19%   Direction: 150°SSE
Pressure: 30.34"   Gusts: NA
Location:  33.03°N, 108.71°W
Report Text: KSVC 262015Z AUTO 15009KT 10SM CLR 16/M08 A3034 RMK AO2
Loading
Personal Weather Stations






























Interactive Weather Map New forecast layout! Learn more

10-Day Weather Forecast

Advertisements
Track Severe Weather on mobile